Data for 11/11/2013

Time Sea-Level Adjusted Pressure Absolute Pressure Temperature Relative Humidity Dew Point   
(mb) (inHg) (mb) (inHg) (C) (F) (%) (C) (F)
00:05 1021 30.15 851 25.13 8.5 47.2 51 -1.1 29.9
00:10 1021 30.15 851 25.13 8.3 46.9 52 -1.1 30.1
00:15 1022 30.18 851 25.13 8.1 46.6 52 -1.1 30
00:20 1022 30.18 851 25.13 8 46.3 52 -1.1 29.9
00:25 1022 30.18 851 25.13 7.9 46.2 53 -1.1 30
00:30 1022 30.18 851 25.13 7.8 46 53 -1.1 30
00:35 1022 30.18 851 25.13 7.7 45.9 53 -1.1 30
00:40 1022 30.18 851 25.13 7.6 45.8 54 -1.2 29.9
00:45 1022 30.18 851 25.13 7.6 45.7 54 -1.2 29.9
00:50 1022 30.18 851 25.13 7.5 45.5 55 -1.1 30.1
00:55 1022 30.18 851 25.13 7.2 45 57 -0.8 30.5
01:00 1022 30.18 851 25.13 6.8 44.2 58 -1 30.2
01:05 1022 30.18 851 25.13 6.7 44.1 57 -1.1 30
01:10 1022 30.18 851 25.13 6.7 44.1 57 -1.2 29.9
01:15 1022 30.18 851 25.13 6.8 44.2 57 -1.1 29.9
01:20 1022 30.18 851 25.13 6.7 44.1 57 -1.1 29.9
01:25 1022 30.18 851 25.13 6.7 44.1 57 -1.1 30
01:30 1022 30.18 851 25.13 6.7 44.1 57 -1.2 29.8
01:35 1022 30.18 851 25.13 6.8 44.2 57 -1.2 29.8
01:40 1022 30.18 851 25.13 6.8 44.2 56 -1.4 29.5
01:45 1022 30.18 851 25.13 6.8 44.3 57 -1.1 30.1
01:50 1022 30.18 851 25.13 6.5 43.7 59 -0.8 30.5
01:55 1022 30.18 851 25.13 5.9 42.6 62 -0.9 30.3
02:00 1022 30.18 851 25.13 5.2 41.4 63 -1.3 29.7
02:05 1022 30.18 851 25.13 4.8 40.6 64 -1.5 29.3
02:10 1022 30.18 851 25.13 4.3 39.8 65 -1.7 29
02:15 1022 30.18 851 25.13 4.1 39.4 65 -1.8 28.8
02:20 1022 30.18 851 25.13 4 39.2 66 -1.8 28.7
02:25 1022 30.18 852 25.16 4.1 39.3 65 -1.8 28.7
02:30 1022 30.18 852 25.16 3.9 39 66 -1.9 28.6
02:35 1022 30.18 852 25.16 3.6 38.6 67 -2 28.4
02:40 1022 30.18 852 25.16 3.5 38.4 67 -2 28.4
02:45 1023 30.21 852 25.16 3.4 38 68 -2 28.4
02:50 1023 30.21 852 25.16 3.2 37.8 69 -2 28.4
02:55 1023 30.21 852 25.16 3.2 37.8 69 -2 28.4
03:00 1023 30.21 852 25.16 3.3 37.9 69 -1.9 28.6
03:05 1023 30.21 852 25.16 3.4 38 67 -2.1 28.2
03:10 1023 30.21 852 25.16 3.6 38.4 67 -2 28.3
03:15 1023 30.21 852 25.16 3.4 38.2 68 -1.9 28.5
03:20 1023 30.21 852 25.16 3.2 37.8 69 -1.8 28.7
03:25 1023 30.21 852 25.16 3.2 37.8 69 -1.9 28.5
03:30 1023 30.21 852 25.16 3.3 38 68 -2.1 28.3
03:35 1023 30.21 852 25.16 3.3 38 67 -2.2 28
03:40 1023 30.21 852 25.16 3.3 37.9 67 -2.2 28
03:45 1023 30.21 852 25.16 3.3 37.9 67 -2.2 28
03:50 1023 30.21 852 25.16 3.5 38.3 67 -2.1 28.2
03:55 1023 30.21 852 25.16 3.1 37.5 68 -2.2 28
04:00 1023 30.21 852 25.16 2.9 37.1 69 -2.3 27.8
04:05 1023 30.21 852 25.16 2.7 36.8 70 -2.3 27.8
04:10 1023 30.21 853 25.19 2.6 36.8 69 -2.5 27.5
04:15 1023 30.21 853 25.19 2.7 36.9 69 -2.4 27.8
04:20 1023 30.21 853 25.19 2.6 36.8 70 -2.3 27.8
04:25 1023 30.21 853 25.19 2.4 36.4 70 -2.5 27.6
04:30 1024 30.24 853 25.19 2.2 36 70 -2.6 27.3
04:35 1024 30.24 853 25.19 2.2 36 70 -2.6 27.3
04:40 1024 30.24 853 25.19 2.2 35.9 71 -2.7 27.2
04:45 1024 30.24 853 25.19 2.1 35.8 70 -2.8 27
04:50 1024 30.24 853 25.19 2.1 35.8 70 -2.8 26.9
04:55 1024 30.24 853 25.19 2.1 35.8 70 -2.8 26.9
05:00 1024 30.24 853 25.19 2.1 35.7 70 -2.9 26.9
05:05 1024 30.24 853 25.19 2 35.7 70 -2.9 26.8
05:10 1024 30.24 853 25.19 2 35.6 70 -2.8 27
05:15 1024 30.24 853 25.19 2 35.6 71 -2.8 27
05:20 1024 30.24 853 25.19 2 35.6 70 -2.8 26.9
05:25 1024 30.24 854 25.22 1.8 35.3 71 -2.9 26.9
05:30 1025 30.27 854 25.22 1.7 35 72 -2.9 26.8
05:35 1025 30.27 854 25.22 1.4 34.6 73 -3 26.7
05:40 1025 30.27 854 25.22 1.3 34.3 73 -3 26.6
05:45 1025 30.27 854 25.22 1.2 34.2 73 -3.1 26.4
05:50 1025 30.27 854 25.22 1.3 34.3 73 -3 26.5
05:55 1025 30.27 854 25.22 1.2 34.2 74 -2.9 26.7
06:00 1025 30.27 854 25.22 1.1 34 74 -3 26.6
06:05 1025 30.27 854 25.22 0.9 33.6 76 -2.9 26.7
06:10 1025 30.27 854 25.22 0.7 33.3 76 -3 26.6
06:15 1025 30.27 854 25.22 0.7 33.2 77 -3 26.6
06:20 1025 30.27 854 25.22 0.8 33.4 76 -3 26.6
06:25 1025 30.27 854 25.22 0.8 33.5 76 -3 26.6
06:30 1025 30.27 854 25.22 0.8 33.4 76 -3 26.7
06:35 1025 30.27 854 25.22 0.6 33 77 -3.1 26.4
06:40 1025 30.27 854 25.22 0.3 32.5 77 -3.2 26.2
06:45 1025 30.27 854 25.22 0.2 32.3 77 -3.3 26
06:50 1025 30.27 854 25.22 0.1 32.2 78 -3.3 26.1
06:55 1025 30.27 854 25.22 0.2 32.4 77 -3.3 26.1
07:00 1025 30.27 854 25.22 0.5 32.9 76 -3.3 26
07:05 1025 30.27 854 25.22 0.4 32.7 77 -3.2 26.2
07:10 1025 30.27 854 25.22 0.2 32.4 77 -3.3 26.1
07:15 1025 30.27 855 25.25 -0 32 79 -3.3 26.1
07:20 1025 30.27 855 25.25 -0.1 31.8 79 -3.4 25.9
07:25 1025 30.27 855 25.25 0.2 32.3 77 -3.3 26
07:30 1026 30.3 855 25.25 0.5 32.8 77 -3.2 26.3
07:35 1026 30.3 855 25.25 0.7 33.2 76 -3.1 26.4
07:40 1026 30.3 855 25.25 0.8 33.4 76 -3 26.7
07:45 1026 30.3 855 25.25 0.8 33.5 76 -2.9 26.7
07:50 1026 30.3 855 25.25 0.8 33.4 76 -3 26.7
07:55 1026 30.3 855 25.25 0.6 33 77 -3 26.6
08:00 1026 30.3 855 25.25 0.4 32.7 78 -3 26.5
08:05 1026 30.3 855 25.25 0.1 32.2 78 -3.3 26.1
08:10 1026 30.3 855 25.25 0.1 32.1 79 -3.2 26.3
08:15 1026 30.3 855 25.25 -0 32 79 -3.2 26.2
08:20 1026 30.3 855 25.25 0.1 32.1 79 -3.2 26.2
08:25 1026 30.3 855 25.25 0.2 32.4 78 -3.1 26.4
08:30 1026 30.3 855 25.25 0.3 32.5 78 -3.1 26.4
08:35 1026 30.3 855 25.25 0.4 32.7 77 -3.2 26.2
08:40 1026 30.3 855 25.25 0.5 33 76 -3.2 26.3
08:45 1026 30.3 855 25.25 0.6 33.2 76 -3.2 26.3
08:50 1026 30.3 855 25.25 0.8 33.4 76 -3.1 26.5
08:55 1026 30.3 856 25.28 0.8 33.5 75 -3.1 26.4
09:00 1027 30.33 856 25.28 0.9 33.6 75 -3.1 26.5
09:05 1027 30.33 856 25.28 0.9 33.6 75 -3.1 26.5
09:10 1027 30.33 856 25.28 0.9 33.7 75 -3.1 26.5
09:15 1027 30.33 856 25.28 0.9 33.6 75 -3.1 26.5
09:20 1027 30.33 856 25.28 0.9 33.6 75 -3 26.6
09:25 1027 30.33 856 25.28 0.8 33.5 76 -2.9 26.8
09:30 1027 30.33 856 25.28 0.8 33.5 76 -2.9 26.7
09:35 1027 30.33 856 25.28 0.8 33.4 76 -3 26.7
09:40 1027 30.33 856 25.28 0.9 33.5 76 -2.9 26.8
09:45 1027 30.33 856 25.28 0.9 33.7 76 -2.9 26.8
09:50 1027 30.33 856 25.28 1.1 34 76 -2.7 27.1
09:55 1027 30.33 856 25.28 1.2 34.2 76 -2.6 27.2
10:00 1027 30.33 856 25.28 1.4 34.5 75 -2.6 27.3
10:05 1027 30.33 856 25.28 1.6 34.8 74 -2.5 27.5
10:10 1027 30.33 856 25.28 1.4 34.5 75 -2.5 27.4
10:15 1027 30.33 856 25.28 1.3 34.3 76 -2.4 27.6
10:20 1027 30.33 856 25.28 1.4 34.5 77 -2.2 28
10:25 1027 30.33 856 25.28 1.4 34.6 77 -2.2 28.1
10:30 1027 30.33 856 25.28 1.5 34.7 77 -2.1 28.2
10:35 1027 30.33 856 25.28 1.6 35 76 -2.1 28.2
10:40 1027 30.33 856 25.28 2.1 35.8 74 -2 28.4
10:45 1027 30.33 856 25.28 2.6 36.6 73 -1.8 28.7
10:50 1027 30.33 856 25.28 2.6 36.7 73 -1.8 28.8
10:55 1027 30.33 856 25.28 2.5 36.5 73 -1.8 28.7
11:00 1027 30.33 856 25.28 2.7 36.8 72 -1.9 28.6
11:05 1027 30.33 856 25.28 2.9 37.2 71 -1.9 28.5
11:10 1027 30.33 856 25.28 3.1 37.6 70 -1.9 28.6
11:15 1027 30.33 857 25.31 3.3 37.9 70 -1.7 28.9
11:20 1027 30.33 857 25.31 3.3 38 69 -1.9 28.7
11:25 1027 30.33 857 25.31 3.5 38.4 68 -1.8 28.8
11:30 1028 30.36 857 25.31 3.9 39 67 -1.8 28.8
11:35 1028 30.36 857 25.31 4.3 39.8 65 -1.7 29
11:40 1028 30.36 857 25.31 4.8 40.6 65 -1.3 29.7
11:45 1028 30.36 857 25.31 4.9 40.8 63 -1.5 29.3
11:50 1028 30.36 857 25.31 5.4 41.7 62 -1.3 29.7
11:55 1028 30.36 857 25.31 5.5 41.9 61 -1.4 29.6
12:00 1028 30.36 857 25.31 5.5 41.8 62 -1.2 29.8
12:05 1028 30.36 857 25.31 5.6 42.1 61 -1.4 29.6
12:10 1028 30.36 857 25.31 5.7 42.3 61 -1.3 29.7
12:15 1028 30.36 857 25.31 5.6 42 62 -1.2 29.9
12:20 1028 30.36 857 25.31 5.3 41.6 62 -1.3 29.7
12:25 1028 30.36 857 25.31 5.5 41.8 62 -1.3 29.6
12:30 1028 30.36 857 25.31 5.8 42.5 60 -1.4 29.5
12:35 1028 30.36 857 25.31 6.3 43.4 58 -1.2 29.8
12:40 1028 30.36 857 25.31 6.6 43.9 57 -1.2 29.9
12:45 1028 30.36 857 25.31 7.2 45 55 -1.2 29.8
12:50 1028 30.36 857 25.31 7.6 45.7 54 -1.1 30
12:55 1028 30.36 857 25.31 8.4 47.1 52 -0.8 30.6
13:00 1028 30.36 857 25.31 8.4 47.1 52 -0.8 30.5
13:05 1028 30.36 857 25.31 9 48.1 51 -0.7 30.7
13:10 1027 30.33 857 25.31 8.9 48.1 52 -0.3 31.4
13:15 1027 30.33 857 25.31 9.6 49.3 48 -0.9 30.3
13:20 1027 30.33 857 25.31 10 50 48 -0.5 31.1
13:25 1027 30.33 857 25.31 10.3 50.5 47 -0.4 31.2
13:30 1027 30.33 857 25.31 10.5 50.9 47 -0.4 31.3
13:35 1027 30.33 857 25.31 10.5 50.9 46 -0.6 30.9
13:40 1028 30.36 857 25.31 10.2 50.4 48 -0.4 31.3
13:45 1028 30.36 857 25.31 9.7 49.5 53 0.6 33.1
13:50 1028 30.36 857 25.31 9.4 48.8 50 -0.4 31.3
13:55 1028 30.36 857 25.31 10 50 51 0.5 32.9
14:00 1028 30.36 857 25.31 9.5 49.1 52 0.3 32.5
14:05 1028 30.36 857 25.31 9.7 49.4 51 -0.1 31.9
14:10 1028 30.36 857 25.31 10.1 50.1 49 -0.2 31.6
14:15 1028 30.36 857 25.31 10 49.9 51 0.4 32.7
14:20 1028 30.36 857 25.31 10.1 50.2 50 0.2 32.4
14:25 1028 30.36 857 25.31 10 50 51 0.5 32.9
14:30 1028 30.36 857 25.31 9.7 49.4 52 0.4 32.7
14:35 1028 30.36 857 25.31 9.7 49.5 53 0.5 33
14:40 1028 30.36 857 25.31 9.2 48.5 55 0.6 33
14:45 1028 30.36 857 25.31 9.3 48.8 54 0.5 32.9
14:50 1028 30.36 857 25.31 9.6 49.3 52 0.4 32.6
14:55 1028 30.36 857 25.31 9.6 49.2 53 0.4 32.7
15:00 1028 30.36 857 25.31 9.2 48.5 56 0.8 33.4
15:05 1028 30.36 857 25.31 8.6 47.6 57 0.5 33
15:10 1028 30.36 857 25.31 8.6 47.4 57 0.6 33.1
15:15 1028 30.36 857 25.31 8.4 47.2 57 0.4 32.7
15:20 1028 30.36 857 25.31 8.5 47.3 58 0.8 33.4
15:25 1028 30.36 857 25.31 8.5 47.4 58 0.8 33.4
15:30 1028 30.36 857 25.31 8.5 47.3 58 0.7 33.3
15:35 1028 30.36 857 25.31 8.6 47.5 58 0.8 33.4
15:40 1028 30.36 857 25.31 8.8 47.8 57 0.8 33.4
15:45 1028 30.36 857 25.31 8.8 47.9 57 0.9 33.7
15:50 1028 30.36 857 25.31 8.3 47 59 0.8 33.4
15:55 1028 30.36 857 25.31 8.3 46.9 57 0.2 32.4
16:00 1028 30.36 857 25.31 8.3 47 58 0.5 32.8
16:05 1028 30.36 857 25.31 8.5 47.2 57 0.6 33
16:10 1028 30.36 857 25.31 8.4 47 59 0.8 33.4
16:15 1028 30.36 857 25.31 8.4 47.2 58 0.7 33.3
16:20 1028 30.36 857 25.31 8.4 47 58 0.6 33
16:25 1028 30.36 857 25.31 8.4 47.1 58 0.7 33.3
16:30 1028 30.36 857 25.31 8.2 46.8 59 0.8 33.4
16:35 1028 30.36 857 25.31 8 46.5 60 0.7 33.2
16:40 1028 30.36 857 25.31 7.9 46.2 61 0.9 33.6
16:45 1028 30.36 857 25.31 7.8 46 61 0.9 33.5
16:50 1028 30.36 857 25.31 7.8 46.1 62 1 33.8
16:55 1028 30.36 857 25.31 7.7 45.8 63 1 33.9
17:00 1028 30.36 858 25.34 7.5 45.5 63 1 33.8
17:05 1028 30.36 858 25.34 7.4 45.3 63 0.9 33.6
17:10 1028 30.36 858 25.34 7.4 45.4 63 0.9 33.6
17:15 1028 30.36 858 25.34 7.6 45.6 63 1 33.9
17:20 1029 30.39 858 25.34 7.5 45.4 64 1.1 34
17:25 1029 30.39 858 25.34 7.2 44.9 64 0.9 33.7
17:30 1029 30.39 858 25.34 7.2 44.9 64 0.9 33.7
17:35 1029 30.39 858 25.34 7.3 45.1 64 0.9 33.5
17:40 1028 30.36 858 25.34 7.6 45.7 62 0.8 33.4
17:45 1028 30.36 858 25.34 7.6 45.7 63 1 33.9
17:50 1028 30.36 858 25.34 7.3 45.1 64 0.9 33.6
17:55 1028 30.36 858 25.34 7.1 44.8 64 0.8 33.5
18:00 1029 30.39 858 25.34 7 44.6 65 1 33.8
18:05 1029 30.39 858 25.34 6.8 44.3 66 0.9 33.6
18:10 1029 30.39 858 25.34 6.7 44 66 0.9 33.6
18:15 1029 30.39 858 25.34 6.5 43.7 66 0.7 33.3
18:20 1029 30.39 858 25.34 6.2 43.2 68 0.7 33.2
18:25 1029 30.39 858 25.34 6 42.7 67 0.3 32.5
18:30 1029 30.39 858 25.34 5.9 42.6 67 0.2 32.4
18:35 1029 30.39 858 25.34 5.8 42.5 65 -0.3 31.5
18:40 1029 30.39 858 25.34 5.7 42.2 65 -0.3 31.5
18:45 1029 30.39 858 25.34 5.4 41.7 66 -0.4 31.3
18:50 1029 30.39 858 25.34 5.3 41.5 68 -0.2 31.7
18:55 1029 30.39 858 25.34 5.3 41.5 67 -0.4 31.3
19:00 1029 30.39 858 25.34 5.4 41.7 65 -0.5 31
19:05 1029 30.39 858 25.34 5.3 41.6 65 -0.6 30.9
19:10 1029 30.39 858 25.34 5.3 41.5 64 -0.9 30.3
19:15 1029 30.39 858 25.34 5.2 41.3 63 -1.2 29.9
19:20 1029 30.39 858 25.34 4.9 40.9 64 -1.3 29.6
19:25 1029 30.39 858 25.34 4.7 40.5 64 -1.4 29.4
19:30 1029 30.39 858 25.34 4.5 40.1 65 -1.5 29.3
19:35 1029 30.39 858 25.34 4.3 39.7 65 -1.8 28.8
19:40 1029 30.39 858 25.34 4.3 39.7 64 -1.9 28.5
19:45 1029 30.39 858 25.34 4.8 40.6 62 -1.8 28.7
19:50 1029 30.39 858 25.34 4.9 40.8 61 -1.9 28.5
19:55 1029 30.39 858 25.34 4.7 40.5 62 -1.9 28.5
20:00 1029 30.39 858 25.34 4.5 40 63 -1.9 28.6
20:05 1029 30.39 859 25.37 4.4 40 64 -1.9 28.6
20:10 1029 30.39 859 25.37 4.3 39.8 65 -1.6 29.2
20:15 1029 30.39 859 25.37 4.1 39.4 68 -1.3 29.6
20:20 1029 30.39 859 25.37 4 39.2 68 -1.4 29.5
20:25 1029 30.39 859 25.37 3.9 39 68 -1.4 29.5
20:30 1029 30.39 859 25.37 3.8 38.9 69 -1.4 29.4
20:35 1029 30.39 859 25.37 3.8 38.8 68 -1.5 29.3
20:40 1030 30.42 859 25.37 3.8 38.8 68 -1.6 29.2
20:45 1030 30.42 859 25.37 3.7 38.6 69 -1.4 29.5
20:50 1029 30.39 859 25.37 3.7 38.6 69 -1.4 29.5
20:55 1029 30.39 859 25.37 3.7 38.6 69 -1.5 29.4
21:00 1029 30.39 859 25.37 3.6 38.6 69 -1.5 29.3
21:05 1029 30.39 859 25.37 3.7 38.6 69 -1.5 29.4
21:10 1029 30.39 859 25.37 3.8 38.8 69 -1.4 29.5
21:15 1029 30.39 859 25.37 3.9 39 68 -1.4 29.5
21:20 1029 30.39 859 25.37 3.9 39 68 -1.4 29.5
21:25 1029 30.39 859 25.37 3.8 38.8 69 -1.3 29.6
21:30 1029 30.39 859 25.37 3.7 38.6 69 -1.5 29.4
21:35 1029 30.39 858 25.34 3.6 38.4 69 -1.5 29.2
21:40 1029 30.39 859 25.37 3.4 38.2 69 -1.6 29.1
21:45 1029 30.39 859 25.37 3.5 38.3 68 -1.7 28.9
21:50 1029 30.39 859 25.37 3.7 38.6 67 -1.8 28.8
21:55 1029 30.39 858 25.34 3.8 38.9 67 -1.8 28.8
22:00 1029 30.39 859 25.37 3.4 38.1 69 -1.8 28.7
22:05 1029 30.39 859 25.37 3.1 37.6 69 -2 28.4
22:10 1029 30.39 859 25.37 3.3 37.9 68 -2 28.4
22:15 1029 30.39 859 25.37 3.3 37.9 68 -2.1 28.3
22:20 1029 30.39 859 25.37 3.4 38.1 67 -2.1 28.2
22:25 1029 30.39 859 25.37 3.3 38 67 -2.2 28
22:30 1029 30.39 859 25.37 3.5 38.2 67 -2.1 28.2
22:35 1029 30.39 859 25.37 3.5 38.3 66 -2.1 28.2
22:40 1029 30.39 859 25.37 3.4 38.2 66 -2.3 27.9
22:45 1029 30.39 859 25.37 3.3 37.9 66 -2.5 27.5
22:50 1029 30.39 858 25.34 3.6 38.5 64 -2.5 27.5
22:55 1029 30.39 858 25.34 3.4 38.2 66 -2.4 27.7
23:00 1029 30.39 858 25.34 3.5 38.2 65 -2.4 27.7
23:05 1029 30.39 858 25.34 3.3 38 66 -2.5 27.5
23:10 1029 30.39 859 25.37 3.3 38 66 -2.5 27.6
23:15 1029 30.39 859 25.37 3.4 38.1 65 -2.5 27.5
23:20 1029 30.39 859 25.37 3.6 38.5 64 -2.7 27.2
23:25 1029 30.39 859 25.37 3.7 38.7 64 -2.5 27.5
23:30 1029 30.39 859 25.37 3.4 38.1 65 -2.5 27.5
23:35 1029 30.39 859 25.37 3.1 37.6 66 -2.6 27.3
23:40 1029 30.39 859 25.37 2.9 37.2 66 -2.8 26.9
23:45 1029 30.39 859 25.37 3 37.4 64 -3 26.5
23:50 1029 30.39 859 25.37 3.4 38.2 63 -2.9 26.7
23:55 1029 30.39 859 25.37 3.5 38.3 63 -2.8 27
24:00 1030 30.42 859 25.37 3.7 38.6 62 -2.9 26.7